createdAt,value
2024-01-06T00:00:52.899Z,17.32
2024-01-06T00:01:52.870Z,17.33
2024-01-06T00:02:53.015Z,17.34
2024-01-06T00:03:53.201Z,17.35
2024-01-06T00:04:53.118Z,17.35
2024-01-06T00:05:53.249Z,17.36
2024-01-06T00:06:53.313Z,17.37
2024-01-06T00:07:53.341Z,17.38
2024-01-06T00:08:53.413Z,17.38
2024-01-06T00:09:53.516Z,17.39
2024-01-06T00:10:53.550Z,17.40
2024-01-06T00:11:53.625Z,17.41
2024-01-06T00:12:53.833Z,17.42
2024-01-06T00:13:53.748Z,17.42
2024-01-06T00:14:53.814Z,17.43
2024-01-06T00:15:53.973Z,17.43
2024-01-06T00:16:53.950Z,17.45
2024-01-06T00:17:54.092Z,17.44
2024-01-06T00:18:54.141Z,17.45
2024-01-06T00:19:54.238Z,17.46
2024-01-06T00:20:54.192Z,17.47
2024-01-06T00:21:54.283Z,17.47
2024-01-06T00:22:54.344Z,17.48
2024-01-06T00:23:54.373Z,17.48
2024-01-06T00:24:54.497Z,17.50
2024-01-06T00:25:54.473Z,17.50
2024-01-06T00:26:54.521Z,17.51
2024-01-06T00:27:54.583Z,17.51
2024-01-06T00:28:54.640Z,17.52
2024-01-06T00:29:54.706Z,17.53
2024-01-06T00:30:54.837Z,17.54
2024-01-06T00:31:54.800Z,17.54
2024-01-06T00:32:54.909Z,17.55
2024-01-06T00:33:54.975Z,17.56
2024-01-06T00:34:55.029Z,17.56
2024-01-06T00:35:55.022Z,17.56
2024-01-06T00:36:55.149Z,17.57
2024-01-06T00:37:55.149Z,17.58
2024-01-06T00:38:55.195Z,17.58
2024-01-06T00:39:55.296Z,17.59
2024-01-06T00:40:55.305Z,17.59
2024-01-06T00:41:55.338Z,17.60
2024-01-06T00:42:55.501Z,17.60
2024-01-06T00:43:55.455Z,17.61
2024-01-06T00:44:55.522Z,17.61
2024-01-06T00:45:55.608Z,17.61
2024-01-06T00:46:55.646Z,17.62
2024-01-06T00:47:55.802Z,17.63
2024-01-06T00:48:55.787Z,17.63
2024-01-06T00:49:55.773Z,17.64
2024-01-06T00:50:55.856Z,17.65
2024-01-06T00:51:55.913Z,17.65
2024-01-06T00:52:55.948Z,17.67
2024-01-06T00:53:55.991Z,17.67
2024-01-06T00:54:56.061Z,17.67
2024-01-06T00:55:56.153Z,17.67
2024-01-06T00:56:58.362Z,17.67
2024-01-06T00:57:56.325Z,17.69
2024-01-06T00:58:56.376Z,17.70
2024-01-06T00:59:56.422Z,17.70
2024-01-06T01:00:56.966Z,17.71
2024-01-06T01:01:56.526Z,17.71
2024-01-06T01:02:56.650Z,17.71
2024-01-06T01:03:56.708Z,17.72
2024-01-06T01:04:56.757Z,17.73
2024-01-06T01:05:56.772Z,17.74
2024-01-06T01:06:56.823Z,17.75
2024-01-06T01:07:56.837Z,17.75
2024-01-06T01:08:56.890Z,17.76
2024-01-06T01:09:57.016Z,17.76
2024-01-06T01:10:57.004Z,17.76
2024-01-06T01:11:57.047Z,17.77
2024-01-06T01:12:57.116Z,17.77
2024-01-06T01:13:57.190Z,17.78
2024-01-06T01:14:57.195Z,17.78
2024-01-06T01:15:57.298Z,17.78
2024-01-06T01:16:57.300Z,17.79
2024-01-06T01:17:57.420Z,17.81
2024-01-06T01:18:57.492Z,17.80
2024-01-06T01:19:57.516Z,17.81
2024-01-06T01:20:57.497Z,17.82
2024-01-06T01:21:57.619Z,17.83
2024-01-06T01:22:57.607Z,17.83
2024-01-06T01:23:57.634Z,17.83
2024-01-06T01:24:57.695Z,17.84
2024-01-06T01:25:57.744Z,17.84
2024-01-06T01:26:57.774Z,17.86
2024-01-06T01:27:57.851Z,17.85
2024-01-06T01:28:57.847Z,17.85
2024-01-06T01:29:57.901Z,17.87
2024-01-06T01:30:58.074Z,17.87
2024-01-06T01:31:58.087Z,17.87
2024-01-06T01:32:58.053Z,17.88
2024-01-06T01:33:58.124Z,17.89
2024-01-06T01:34:58.130Z,17.89
2024-01-06T01:35:59.479Z,17.89
2024-01-06T01:36:58.136Z,17.89
2024-01-06T01:37:58.129Z,17.90
2024-01-06T01:38:58.133Z,17.90
2024-01-06T01:39:58.137Z,17.91
2024-01-06T01:40:58.135Z,17.91
2024-01-06T01:41:58.150Z,17.92
2024-01-06T01:42:58.142Z,17.93
2024-01-06T01:43:58.139Z,17.93
2024-01-06T01:44:58.144Z,17.93
2024-01-06T01:45:58.209Z,17.93
2024-01-06T01:46:58.168Z,17.94
2024-01-06T01:47:58.233Z,17.94
2024-01-06T01:48:58.315Z,17.95
2024-01-06T01:49:58.130Z,17.95
2024-01-06T01:50:58.117Z,17.96
2024-01-06T01:51:58.108Z,17.96
2024-01-06T01:52:58.149Z,17.96
2024-01-06T01:53:58.113Z,17.98
2024-01-06T01:54:58.107Z,17.98
2024-01-06T01:55:58.108Z,17.98
2024-01-06T01:56:58.107Z,17.99
2024-01-06T01:57:58.098Z,17.99
2024-01-06T01:58:58.104Z,17.99
2024-01-06T01:59:58.107Z,18.01
2024-01-06T02:00:58.182Z,18.01
2024-01-06T02:01:58.100Z,18.02
2024-01-06T02:02:58.121Z,18.02
2024-01-06T02:03:58.141Z,18.02
2024-01-06T02:04:58.170Z,18.03
2024-01-06T02:05:58.083Z,18.03
2024-01-06T02:06:58.080Z,18.04
2024-01-06T02:07:58.080Z,18.04
2024-01-06T02:08:58.084Z,18.05
2024-01-06T02:09:58.077Z,18.05
2024-01-06T02:10:58.074Z,18.05
2024-01-06T02:11:58.066Z,18.05
2024-01-06T02:12:58.100Z,18.06
2024-01-06T02:13:58.078Z,18.06
2024-01-06T02:14:58.083Z,18.07
2024-01-06T02:15:58.163Z,18.08
2024-01-06T02:16:58.074Z,18.08
2024-01-06T02:17:58.175Z,18.09
2024-01-06T02:18:58.133Z,18.09
2024-01-06T02:19:58.145Z,18.10
2024-01-06T02:20:58.073Z,18.10
2024-01-06T02:21:58.069Z,18.09
2024-01-06T02:22:58.080Z,18.10
2024-01-06T02:23:58.072Z,18.11
2024-01-06T02:24:58.080Z,18.11
2024-01-06T02:25:58.090Z,18.12
2024-01-06T02:26:58.099Z,18.13
2024-01-06T02:27:58.168Z,18.13
2024-01-06T02:28:58.084Z,18.13
2024-01-06T02:29:58.090Z,18.13
2024-01-06T02:30:58.141Z,18.14
2024-01-06T02:31:58.096Z,18.15
2024-01-06T02:32:58.171Z,18.15
2024-01-06T02:33:58.197Z,18.14
2024-01-06T02:34:58.117Z,18.15
2024-01-06T02:35:58.118Z,18.15
2024-01-06T02:36:58.119Z,18.16
2024-01-06T02:37:58.129Z,18.17
2024-01-06T02:38:58.136Z,18.17
2024-01-06T02:39:58.139Z,18.18
2024-01-06T02:40:58.140Z,18.18
2024-01-06T02:41:58.137Z,18.18
2024-01-06T02:42:58.191Z,18.19
2024-01-06T02:43:58.161Z,18.19
2024-01-06T02:44:58.143Z,18.19
2024-01-06T02:45:58.177Z,18.19
2024-01-06T02:46:58.152Z,18.19
2024-01-06T02:47:58.240Z,18.19
2024-01-06T02:48:58.306Z,18.20
2024-01-06T02:49:58.217Z,18.20
2024-01-06T02:50:58.140Z,18.21
2024-01-06T02:51:58.141Z,18.21
2024-01-06T02:52:58.141Z,18.22
2024-01-06T02:53:58.140Z,18.21
2024-01-06T02:54:58.206Z,18.22
2024-01-06T02:55:58.148Z,18.22
2024-01-06T02:56:58.140Z,18.22
2024-01-06T02:57:58.188Z,18.22
2024-01-06T02:58:58.154Z,18.23
2024-01-06T02:59:58.132Z,18.23
2024-01-06T03:00:58.196Z,18.23
2024-01-06T03:01:58.133Z,18.23
2024-01-06T03:02:58.163Z,18.24
2024-01-06T03:03:58.195Z,18.25
2024-01-06T03:04:58.191Z,18.25
2024-01-06T03:05:58.125Z,18.25
2024-01-06T03:06:58.161Z,18.25
2024-01-06T03:07:58.142Z,18.25
2024-01-06T03:08:58.148Z,18.26
2024-01-06T03:09:58.147Z,18.27
2024-01-06T03:10:58.152Z,18.27
2024-01-06T03:11:58.149Z,18.27
2024-01-06T03:12:58.173Z,18.27
2024-01-06T03:13:58.153Z,18.27
2024-01-06T03:14:58.147Z,18.27
2024-01-06T03:15:58.174Z,18.27
2024-01-06T03:16:58.149Z,18.28
2024-01-06T03:17:58.187Z,18.29
2024-01-06T03:18:58.331Z,18.30
2024-01-06T03:19:58.199Z,18.29
2024-01-06T03:20:58.145Z,18.31
2024-01-06T03:21:58.142Z,18.31
2024-01-06T03:22:58.145Z,18.31
2024-01-06T03:23:58.162Z,18.31
2024-01-06T03:24:58.183Z,18.32
2024-01-06T03:25:58.149Z,18.33
2024-01-06T03:26:58.137Z,18.32
2024-01-06T03:27:58.138Z,18.32
2024-01-06T03:28:58.122Z,18.33
2024-01-06T03:29:58.125Z,18.33
2024-01-06T03:30:58.201Z,18.33
2024-01-06T03:31:58.118Z,18.34
2024-01-06T03:32:58.252Z,18.34
2024-01-06T03:33:58.232Z,18.34
2024-01-06T03:34:58.096Z,18.35
2024-01-06T03:35:58.108Z,18.35
2024-01-06T03:36:58.122Z,18.36
2024-01-06T03:37:58.105Z,18.35
2024-01-06T03:38:58.078Z,18.36
2024-01-06T03:39:58.169Z,18.36
2024-01-06T03:40:58.086Z,18.36
2024-01-06T03:41:58.068Z,18.36
2024-01-06T03:42:58.090Z,18.36
2024-01-06T03:43:58.065Z,18.38
2024-01-06T03:44:58.074Z,18.37
2024-01-06T03:45:58.107Z,18.38
2024-01-06T03:46:58.059Z,18.37
2024-01-06T03:47:58.112Z,18.38
2024-01-06T03:48:58.119Z,18.39
2024-01-06T03:49:58.100Z,18.39
2024-01-06T03:50:58.150Z,18.40
2024-01-06T03:51:58.067Z,18.41
2024-01-06T03:52:58.035Z,18.40
2024-01-06T03:53:58.041Z,18.40
2024-01-06T03:54:58.132Z,18.41
2024-01-06T03:55:58.021Z,18.41
2024-01-06T03:56:58.028Z,18.41
2024-01-06T03:57:58.039Z,18.42
2024-01-06T03:58:58.035Z,18.41
2024-01-06T03:59:58.020Z,18.41
2024-01-06T04:00:58.122Z,18.42
2024-01-06T04:01:58.025Z,18.42
2024-01-06T04:02:58.023Z,18.42
2024-01-06T04:03:58.068Z,18.43
2024-01-06T04:04:58.040Z,18.43
2024-01-06T04:05:58.083Z,18.44
2024-01-06T04:06:58.021Z,18.44
2024-01-06T04:07:58.007Z,18.44
2024-01-06T04:08:57.997Z,18.45
2024-01-06T04:09:58.046Z,18.45
2024-01-06T04:10:57.983Z,18.46
2024-01-06T04:11:57.979Z,18.46
2024-01-06T04:12:58.004Z,18.47
2024-01-06T04:13:57.968Z,18.47
2024-01-06T04:14:57.963Z,18.48
2024-01-06T04:15:57.992Z,18.47
2024-01-06T04:16:58.202Z,18.48
2024-01-06T04:17:58.077Z,18.48
2024-01-06T04:18:58.059Z,18.48
2024-01-06T04:19:57.992Z,18.48
2024-01-06T04:20:57.950Z,18.49
2024-01-06T04:21:58.000Z,18.49
2024-01-06T04:22:57.966Z,18.49
2024-01-06T04:23:58.968Z,18.50
2024-01-06T04:24:58.093Z,18.50
2024-01-06T04:25:58.064Z,18.51
2024-01-06T04:26:58.121Z,18.51
2024-01-06T04:27:58.252Z,18.51
2024-01-06T04:28:58.160Z,18.51
2024-01-06T04:29:58.174Z,18.52
2024-01-06T04:30:58.257Z,18.52
2024-01-06T04:31:58.285Z,18.51
2024-01-06T04:32:58.380Z,18.52
2024-01-06T04:33:58.396Z,18.53
2024-01-06T04:34:58.327Z,18.52
2024-01-06T04:35:58.346Z,18.53
2024-01-06T04:36:58.408Z,18.54
2024-01-06T04:37:58.435Z,18.54
2024-01-06T04:38:58.463Z,18.54
2024-01-06T04:39:58.557Z,18.54
2024-01-06T04:40:58.541Z,18.55
2024-01-06T04:41:58.568Z,18.55
2024-01-06T04:42:58.672Z,18.55
2024-01-06T04:43:58.663Z,18.56
2024-01-06T04:44:58.670Z,18.56
2024-01-06T04:45:58.744Z,18.56
2024-01-06T04:46:58.780Z,18.56
2024-01-06T04:47:58.863Z,18.56
2024-01-06T04:48:58.862Z,18.57
2024-01-06T04:49:58.864Z,18.58
2024-01-06T04:50:58.896Z,18.58
2024-01-06T04:51:58.935Z,18.58
2024-01-06T04:52:58.994Z,18.58
2024-01-06T04:53:58.995Z,18.58
2024-01-06T04:54:59.053Z,18.59
2024-01-06T04:55:59.098Z,18.59
2024-01-06T04:56:59.125Z,18.59
2024-01-06T04:57:59.492Z,18.59
2024-01-06T04:58:59.186Z,18.60
2024-01-06T04:59:59.277Z,18.60
2024-01-06T05:00:59.321Z,18.62
2024-01-06T05:01:59.272Z,18.61
2024-01-06T05:02:59.331Z,18.62
2024-01-06T05:03:59.472Z,18.63
2024-01-06T05:04:59.446Z,18.63
2024-01-06T05:06:06.768Z,18.62
2024-01-06T05:07:06.771Z,18.62
2024-01-06T05:08:06.787Z,18.63
2024-01-06T05:09:06.808Z,18.63
2024-01-06T05:10:06.816Z,18.64
2024-01-06T05:11:06.846Z,18.65
2024-01-06T05:12:06.854Z,18.65
2024-01-06T05:13:06.865Z,18.65
2024-01-06T05:14:06.882Z,18.66
2024-01-06T05:15:06.892Z,18.66
2024-01-06T05:16:06.917Z,18.66
2024-01-06T05:17:06.919Z,18.66
2024-01-06T05:18:07.120Z,18.66
2024-01-06T05:19:07.090Z,18.66
2024-01-06T05:20:06.982Z,18.67
2024-01-06T05:21:07.004Z,18.67
2024-01-06T05:22:07.001Z,18.67
2024-01-06T05:23:07.006Z,18.68
2024-01-06T05:24:07.027Z,18.68
2024-01-06T05:25:07.028Z,18.69
2024-01-06T05:26:07.046Z,18.68
2024-01-06T05:27:07.218Z,18.69
2024-01-06T05:28:07.074Z,18.70
2024-01-06T05:29:07.068Z,18.69
2024-01-06T05:30:07.157Z,18.70
2024-01-06T05:31:07.412Z,18.70
2024-01-06T05:32:07.103Z,18.71
2024-01-06T05:33:07.264Z,18.70
2024-01-06T05:34:07.221Z,18.70
2024-01-06T05:35:07.414Z,18.71
2024-01-06T05:36:07.228Z,18.71
2024-01-06T05:37:07.295Z,18.71
2024-01-06T05:38:07.364Z,18.71
2024-01-06T05:39:07.440Z,18.72
2024-01-06T05:40:07.535Z,18.72
2024-01-06T05:41:07.583Z,18.72
2024-01-06T05:42:07.663Z,18.72
2024-01-06T05:43:07.766Z,18.73
2024-01-06T05:44:07.809Z,18.73
2024-01-06T05:45:07.891Z,18.73
2024-01-06T05:46:08.936Z,18.73
2024-01-06T05:47:08.065Z,18.74
2024-01-06T05:48:08.182Z,18.75
2024-01-06T05:49:08.242Z,18.75
2024-01-06T05:50:08.242Z,18.75
2024-01-06T05:51:08.337Z,18.75
2024-01-06T05:52:08.397Z,18.75
2024-01-06T05:53:08.493Z,18.76
2024-01-06T05:54:08.549Z,18.76
2024-01-06T05:55:08.614Z,18.76
2024-01-06T05:56:08.670Z,18.77
2024-01-06T05:57:08.745Z,18.77
2024-01-06T05:58:08.848Z,18.77
2024-01-06T05:59:08.891Z,18.77
2024-01-06T06:00:08.941Z,18.78
2024-01-06T06:01:09.083Z,18.78
2024-01-06T06:02:09.084Z,18.78
2024-01-06T06:03:09.256Z,18.78
2024-01-06T06:04:09.319Z,18.80
2024-01-06T06:05:09.387Z,18.79
2024-01-06T06:06:09.430Z,18.79
2024-01-06T06:07:09.475Z,18.81
2024-01-06T06:08:09.495Z,18.80
2024-01-06T06:09:09.756Z,18.81
2024-01-06T06:10:09.760Z,18.81
2024-01-06T06:11:09.712Z,18.80
2024-01-06T06:12:09.761Z,18.81
2024-01-06T06:13:09.828Z,18.81
2024-01-06T06:14:09.921Z,18.81
2024-01-06T06:15:10.050Z,18.82
2024-01-06T06:16:10.045Z,18.82
2024-01-06T06:17:10.098Z,18.82
2024-01-06T06:18:10.335Z,18.83
2024-01-06T06:19:10.272Z,18.83
2024-01-06T06:20:10.315Z,18.83
2024-01-06T06:21:10.405Z,18.83
2024-01-06T06:22:10.423Z,18.83
2024-01-06T06:23:10.498Z,18.84
2024-01-06T06:24:10.578Z,18.83
2024-01-06T06:25:10.614Z,18.85
2024-01-06T06:26:10.689Z,18.85
2024-01-06T06:27:10.812Z,18.86
2024-01-06T06:28:10.818Z,18.86
2024-01-06T06:29:10.875Z,18.86
2024-01-06T06:30:11.107Z,18.86
2024-01-06T06:31:11.119Z,18.86
2024-01-06T06:32:11.091Z,18.86
2024-01-06T06:33:11.269Z,18.87
2024-01-06T06:34:11.292Z,18.87
2024-01-06T06:35:11.269Z,18.87
2024-01-06T06:36:11.387Z,18.86
2024-01-06T06:37:11.413Z,18.87
2024-01-06T06:38:11.463Z,18.88
2024-01-06T06:39:11.617Z,18.87
2024-01-06T06:40:11.600Z,18.88
2024-01-06T06:41:11.662Z,18.88
2024-01-06T06:42:11.735Z,18.88
2024-01-06T06:43:11.790Z,18.88
2024-01-06T06:44:11.875Z,18.89
2024-01-06T06:45:11.963Z,18.89
2024-01-06T06:46:11.998Z,18.88
2024-01-06T06:47:12.079Z,18.90
2024-01-06T06:48:12.256Z,18.90
2024-01-06T06:49:12.277Z,18.90
2024-01-06T06:50:12.289Z,18.90
2024-01-06T06:51:12.347Z,18.90
2024-01-06T06:52:12.377Z,18.91
2024-01-06T06:53:12.440Z,18.90
2024-01-06T06:54:12.524Z,18.91
2024-01-06T06:55:12.569Z,18.92
2024-01-06T06:56:12.626Z,18.92
2024-01-06T06:57:12.688Z,18.92
2024-01-06T06:58:12.742Z,18.92
2024-01-06T06:59:12.815Z,18.92
2024-01-06T07:00:12.925Z,18.92
2024-01-06T07:01:12.979Z,18.93
2024-01-06T07:02:13.007Z,18.93
2024-01-06T07:03:13.163Z,18.93
2024-01-06T07:04:13.151Z,18.93
2024-01-06T07:05:13.238Z,18.94
2024-01-06T07:06:13.282Z,18.94
2024-01-06T07:07:13.301Z,18.94
2024-01-06T07:08:13.361Z,18.94
2024-01-06T07:09:13.471Z,18.94
2024-01-06T07:10:13.481Z,18.96
2024-01-06T07:11:13.543Z,18.96
2024-01-06T07:12:13.638Z,18.96
2024-01-06T07:13:13.666Z,18.96
2024-01-06T07:14:13.727Z,18.97
2024-01-06T07:15:13.853Z,18.97
2024-01-06T07:16:18.705Z,18.96
2024-01-06T07:17:14.879Z,18.96
2024-01-06T07:18:14.000Z,18.96
2024-01-06T07:19:14.067Z,18.97
2024-01-06T07:20:13.893Z,18.98
2024-01-06T07:21:14.013Z,18.97
2024-01-06T07:22:13.939Z,18.97
2024-01-06T07:23:13.957Z,18.98
2024-01-06T07:24:13.989Z,18.98
2024-01-06T07:25:13.971Z,18.98
2024-01-06T07:26:13.975Z,18.99
2024-01-06T07:27:14.024Z,18.98
2024-01-06T07:28:14.064Z,18.99
2024-01-06T07:29:14.136Z,18.99
2024-01-06T07:30:14.321Z,18.99
2024-01-06T07:31:14.405Z,19.00
2024-01-06T07:32:14.292Z,19.00
2024-01-06T07:33:14.475Z,19.00
2024-01-06T07:34:14.492Z,18.99
2024-01-06T07:35:14.481Z,19.00
2024-01-06T07:36:14.555Z,18.99
2024-01-06T07:37:14.591Z,18.99
2024-01-06T07:38:14.672Z,19.00
2024-01-06T07:39:14.836Z,19.01
2024-01-06T07:40:14.761Z,19.01
2024-01-06T07:41:14.899Z,19.00
2024-01-06T07:42:14.969Z,19.01
2024-01-06T07:43:14.931Z,19.01
2024-01-06T07:44:14.987Z,19.00
2024-01-06T07:45:15.262Z,19.01
2024-01-06T07:46:16.633Z,19.01
2024-01-06T07:47:15.108Z,19.02
2024-01-06T07:48:15.469Z,19.02
2024-01-06T07:49:15.362Z,19.02
2024-01-06T07:50:15.154Z,19.01
2024-01-06T07:51:15.209Z,19.02
2024-01-06T07:52:15.184Z,19.03
2024-01-06T07:53:15.333Z,19.02
2024-01-06T07:54:15.226Z,19.03
2024-01-06T07:55:15.210Z,19.03
2024-01-06T07:56:15.228Z,19.04
2024-01-06T07:57:15.350Z,19.04
2024-01-06T07:58:15.268Z,19.03
2024-01-06T07:59:15.271Z,19.04
2024-01-06T08:00:15.291Z,19.04
2024-01-06T08:01:15.347Z,19.03
2024-01-06T08:02:15.310Z,19.04
2024-01-06T08:03:15.520Z,19.03
2024-01-06T08:04:15.482Z,19.04
2024-01-06T08:05:15.356Z,19.04
2024-01-06T08:06:15.417Z,19.04
2024-01-06T08:07:15.546Z,19.04
2024-01-06T08:08:15.389Z,19.04
2024-01-06T08:09:15.444Z,19.04
2024-01-06T08:10:15.403Z,19.05
2024-01-06T08:11:15.430Z,19.05
2024-01-06T08:12:15.463Z,19.05
2024-01-06T08:13:15.450Z,19.04
2024-01-06T08:14:15.462Z,19.05
2024-01-06T08:15:15.517Z,19.05
2024-01-06T08:16:15.560Z,19.05
2024-01-06T08:17:17.833Z,19.05
2024-01-06T08:18:15.706Z,19.05
2024-01-06T08:19:15.574Z,19.05
2024-01-06T08:20:15.566Z,19.06
2024-01-06T08:21:15.589Z,19.05
2024-01-06T08:22:15.574Z,19.06
2024-01-06T08:23:15.592Z,19.07
2024-01-06T08:24:15.669Z,19.07
2024-01-06T08:25:15.623Z,19.07
2024-01-06T08:26:15.629Z,19.07
2024-01-06T08:27:15.670Z,19.08
2024-01-06T08:28:15.654Z,19.08
2024-01-06T08:29:15.666Z,19.07
2024-01-06T08:30:15.830Z,19.07
2024-01-06T08:31:15.843Z,19.09
2024-01-06T08:32:15.699Z,19.09
2024-01-06T08:33:15.817Z,19.09
2024-01-06T08:34:15.978Z,19.10
2024-01-06T08:35:15.738Z,19.09
2024-01-06T08:36:15.815Z,19.10
2024-01-06T08:37:15.766Z,19.10
2024-01-06T08:38:15.767Z,19.11
2024-01-06T08:39:15.832Z,19.11
2024-01-06T08:40:15.816Z,19.11
2024-01-06T08:41:15.810Z,19.10
2024-01-06T08:42:15.862Z,19.10
2024-01-06T08:43:15.851Z,19.10
2024-01-06T08:44:15.857Z,19.10
2024-01-06T08:45:15.889Z,19.10
2024-01-06T08:46:15.890Z,19.11
2024-01-06T08:47:15.893Z,19.11
2024-01-06T08:48:16.035Z,19.10
2024-01-06T08:49:16.031Z,19.11
2024-01-06T08:50:15.972Z,19.11
2024-01-06T08:51:15.954Z,19.11
2024-01-06T08:52:15.957Z,19.12
2024-01-06T08:53:15.983Z,19.12
2024-01-06T08:54:16.054Z,19.12
2024-01-06T08:55:16.115Z,19.12
2024-01-06T08:56:16.037Z,19.12
2024-01-06T08:57:16.050Z,19.12
2024-01-06T08:58:16.053Z,19.13
2024-01-06T08:59:16.063Z,19.12
2024-01-06T09:00:16.168Z,19.12
2024-01-06T09:01:16.212Z,19.12
2024-01-06T09:02:16.104Z,19.12
2024-01-06T09:03:16.182Z,19.12
2024-01-06T09:04:16.211Z,19.12
2024-01-06T09:05:16.206Z,19.12
2024-01-06T09:06:16.232Z,19.12
2024-01-06T09:07:16.174Z,19.13
2024-01-06T09:08:16.183Z,19.12
2024-01-06T09:09:16.322Z,19.12
2024-01-06T09:10:16.240Z,19.13
2024-01-06T09:11:16.298Z,19.13
2024-01-06T09:12:16.368Z,19.13
2024-01-06T09:13:16.387Z,19.14
2024-01-06T09:14:16.409Z,19.14
2024-01-06T09:15:16.497Z,19.14
2024-01-06T09:16:16.501Z,19.15
2024-01-06T09:17:16.547Z,19.14
2024-01-06T09:18:16.746Z,19.15
2024-01-06T09:19:16.771Z,19.15
2024-01-06T09:20:16.675Z,19.15
2024-01-06T09:21:16.740Z,19.16
2024-01-06T09:22:16.754Z,19.15
2024-01-06T09:23:16.803Z,19.15
2024-01-06T09:24:16.870Z,19.15
2024-01-06T09:25:16.846Z,19.16
2024-01-06T09:26:16.876Z,19.15
2024-01-06T09:27:17.932Z,19.15
2024-01-06T09:28:16.951Z,19.16
2024-01-06T09:29:16.977Z,19.15
2024-01-06T09:30:17.089Z,19.16
2024-01-06T09:31:17.112Z,19.16
2024-01-06T09:32:17.108Z,19.16
2024-01-06T09:33:17.430Z,19.16
2024-01-06T09:34:17.239Z,19.15
2024-01-06T09:35:17.241Z,19.16
2024-01-06T09:36:17.289Z,19.17
2024-01-06T09:37:17.300Z,19.17
2024-01-06T09:38:17.346Z,19.17
2024-01-06T09:39:17.394Z,19.16
2024-01-06T09:40:17.420Z,19.16
2024-01-06T09:41:17.495Z,19.17
2024-01-06T09:42:17.524Z,19.16
2024-01-06T09:43:17.542Z,19.17
2024-01-06T09:44:17.670Z,19.17
2024-01-06T09:45:17.630Z,19.18
2024-01-06T09:46:17.641Z,19.17
2024-01-06T09:47:17.681Z,19.17
2024-01-06T09:48:17.920Z,19.18
2024-01-06T09:49:17.801Z,19.18
2024-01-06T09:50:17.800Z,19.18
2024-01-06T09:51:17.934Z,19.18
2024-01-06T09:52:17.858Z,19.18
2024-01-06T09:53:17.896Z,19.18
2024-01-06T09:54:17.948Z,19.19
2024-01-06T09:55:17.967Z,19.18
2024-01-06T09:56:18.002Z,19.19
2024-01-06T09:57:18.090Z,19.19
2024-01-06T09:58:18.126Z,19.20
2024-01-06T09:59:18.096Z,19.19
2024-01-06T10:00:18.168Z,19.19
2024-01-06T10:01:18.219Z,19.19
2024-01-06T10:02:18.239Z,19.19
2024-01-06T10:03:18.349Z,19.19
2024-01-06T10:04:21.528Z,19.19
2024-01-06T10:05:19.341Z,19.19
2024-01-06T10:06:18.417Z,19.19
2024-01-06T10:07:18.291Z,19.19
2024-01-06T10:08:18.361Z,19.19
2024-01-06T10:09:18.352Z,19.19
2024-01-06T10:10:18.341Z,19.19
2024-01-06T10:11:18.340Z,19.19
2024-01-06T10:12:18.372Z,19.19
2024-01-06T10:13:18.371Z,19.19
2024-01-06T10:14:18.372Z,19.19
2024-01-06T10:15:18.390Z,19.20
2024-01-06T10:16:18.385Z,19.20
2024-01-06T10:17:18.394Z,19.20
2024-01-06T10:18:18.536Z,19.20
2024-01-06T10:19:18.493Z,19.21
2024-01-06T10:20:18.430Z,19.21
2024-01-06T10:21:18.461Z,19.21
2024-01-06T10:22:18.447Z,19.20
2024-01-06T10:23:18.456Z,19.20
2024-01-06T10:24:18.523Z,19.21
2024-01-06T10:25:18.496Z,19.21
2024-01-06T10:26:18.462Z,19.20
2024-01-06T10:27:18.503Z,19.21
2024-01-06T10:28:18.519Z,19.20
2024-01-06T10:29:18.550Z,19.19
2024-01-06T10:30:18.770Z,19.21
2024-01-06T10:31:18.681Z,19.21
2024-01-06T10:32:18.639Z,19.22
2024-01-06T10:33:18.808Z,19.22
2024-01-06T10:34:18.745Z,19.21
2024-01-06T10:35:18.721Z,19.22
2024-01-06T10:36:18.820Z,19.22
2024-01-06T10:37:18.789Z,19.21
2024-01-06T10:38:18.816Z,19.22
2024-01-06T10:39:18.846Z,19.22
2024-01-06T10:40:18.876Z,19.22
2024-01-06T10:41:18.896Z,19.22
2024-01-06T10:42:18.946Z,19.22
2024-01-06T10:43:18.950Z,19.22
2024-01-06T10:44:18.972Z,19.23
2024-01-06T10:45:19.040Z,19.24
2024-01-06T10:46:19.029Z,19.24
2024-01-06T10:47:19.056Z,19.25
2024-01-06T10:48:19.251Z,19.25
2024-01-06T10:49:19.149Z,19.25
2024-01-06T10:50:19.143Z,19.24
2024-01-06T10:51:19.202Z,19.24
2024-01-06T10:52:19.312Z,19.25
2024-01-06T10:53:19.215Z,19.25
2024-01-06T10:54:19.259Z,19.25
2024-01-06T10:55:19.263Z,19.24
2024-01-06T10:56:19.266Z,19.24
2024-01-06T10:57:19.323Z,19.24
2024-01-06T10:58:19.311Z,19.24
2024-01-06T10:59:19.342Z,19.24
2024-01-06T11:00:19.384Z,19.25
2024-01-06T11:01:20.842Z,19.25
2024-01-06T11:02:19.387Z,19.25
2024-01-06T11:03:19.578Z,19.24
2024-01-06T11:04:19.487Z,19.25
2024-01-06T11:05:19.495Z,19.25
2024-01-06T11:06:19.481Z,19.26
2024-01-06T11:07:19.515Z,19.26
2024-01-06T11:08:19.509Z,19.26
2024-01-06T11:09:19.569Z,19.27
2024-01-06T11:10:19.583Z,19.26
2024-01-06T11:11:19.582Z,19.27
2024-01-06T11:12:19.698Z,19.26
2024-01-06T11:13:19.613Z,19.27
2024-01-06T11:14:19.663Z,19.27
2024-01-06T11:15:19.738Z,19.27
2024-01-06T11:16:19.707Z,19.27
2024-01-06T11:17:19.699Z,19.27
2024-01-06T11:18:19.892Z,19.26
2024-01-06T11:19:19.866Z,19.27
2024-01-06T11:20:19.794Z,19.27
2024-01-06T11:21:19.804Z,19.27
2024-01-06T11:22:19.901Z,19.26
2024-01-06T11:23:19.839Z,19.27
2024-01-06T11:24:19.892Z,19.27
2024-01-06T11:25:19.923Z,19.27
2024-01-06T11:26:19.878Z,19.27
2024-01-06T11:27:19.940Z,19.27
2024-01-06T11:28:19.924Z,19.27
2024-01-06T11:29:19.938Z,19.27
2024-01-06T11:30:20.086Z,19.28
2024-01-06T11:31:20.029Z,19.28
2024-01-06T11:32:19.989Z,19.29
2024-01-06T11:33:20.123Z,19.28
2024-01-06T11:34:20.416Z,19.28
2024-01-06T11:35:20.037Z,19.28
2024-01-06T11:36:20.085Z,19.28
2024-01-06T11:37:20.077Z,19.27
2024-01-06T11:38:20.081Z,19.28
2024-01-06T11:39:20.155Z,19.27
2024-01-06T11:40:20.122Z,19.28
2024-01-06T11:41:20.131Z,19.28
2024-01-06T11:42:20.181Z,19.28
2024-01-06T11:43:20.159Z,19.28
2024-01-06T11:44:20.171Z,19.29
2024-01-06T11:45:20.227Z,19.28
2024-01-06T11:46:20.229Z,19.28
2024-01-06T11:47:20.208Z,19.29
2024-01-06T11:48:21.169Z,19.29
2024-01-06T11:49:20.443Z,19.29
2024-01-06T11:50:20.253Z,19.29
2024-01-06T11:51:20.302Z,19.29
2024-01-06T11:52:20.312Z,19.29
2024-01-06T11:53:20.322Z,19.29
2024-01-06T11:54:22.013Z,19.29
2024-01-06T11:55:20.359Z,19.30
2024-01-06T11:56:20.382Z,19.30
2024-01-06T11:57:20.434Z,19.30
2024-01-06T11:58:20.399Z,19.30
2024-01-06T11:59:20.420Z,19.30
2024-01-06T12:00:20.468Z,19.30
2024-01-06T12:01:20.545Z,19.31
2024-01-06T12:02:20.457Z,19.31
2024-01-06T12:03:20.510Z,19.30
2024-01-06T12:04:20.525Z,19.31
2024-01-06T12:05:20.488Z,19.30
2024-01-06T12:06:20.560Z,19.31
2024-01-06T12:07:20.589Z,19.30
2024-01-06T12:08:20.523Z,19.31
2024-01-06T12:09:20.654Z,19.30
2024-01-06T12:10:20.537Z,19.31
2024-01-06T12:11:20.549Z,19.31
2024-01-06T12:12:20.622Z,19.31
2024-01-06T12:13:20.610Z,19.31
2024-01-06T12:14:20.591Z,19.31
2024-01-06T12:15:20.639Z,19.30
2024-01-06T12:16:20.616Z,19.31
2024-01-06T12:17:20.632Z,19.31
2024-01-06T12:18:20.733Z,19.30
2024-01-06T12:19:20.794Z,19.30
2024-01-06T12:20:20.676Z,19.32
2024-01-06T12:21:20.702Z,19.31
2024-01-06T12:22:20.688Z,19.32
2024-01-06T12:23:20.696Z,19.32
2024-01-06T12:24:20.744Z,19.31
2024-01-06T12:25:20.782Z,19.31
2024-01-06T12:26:20.728Z,19.32
2024-01-06T12:27:20.755Z,19.32
2024-01-06T12:28:20.756Z,19.32
2024-01-06T12:29:20.753Z,19.32
2024-01-06T12:30:20.925Z,19.32
2024-01-06T12:31:20.866Z,19.32
2024-01-06T12:32:20.820Z,19.33
2024-01-06T12:33:20.890Z,19.33
2024-01-06T12:34:20.920Z,19.34
2024-01-06T12:35:20.812Z,19.33
2024-01-06T12:36:26.653Z,19.33
2024-01-06T12:37:21.831Z,19.33
2024-01-06T12:38:20.856Z,19.33
2024-01-06T12:39:20.875Z,19.34
2024-01-06T12:40:20.987Z,19.34
2024-01-06T12:41:20.891Z,19.34
2024-01-06T12:42:21.591Z,19.34
2024-01-06T12:43:21.027Z,19.34
2024-01-06T12:44:20.919Z,19.35
2024-01-06T12:45:21.018Z,19.34
2024-01-06T12:46:20.951Z,19.34
2024-01-06T12:47:20.993Z,19.34
2024-01-06T12:48:21.077Z,19.35
2024-01-06T12:49:21.046Z,19.35
2024-01-06T12:50:20.999Z,19.35
2024-01-06T12:51:21.019Z,19.35
2024-01-06T12:52:21.038Z,19.35
2024-01-06T12:53:21.052Z,19.35